Time;durP1;ratioP1;P1;durP2;ratioP2;P2;SDS_P1;SDS_P2;PMS_P1;PMS_P2;Temp;Humidity;BMP_temperature;BMP_pressure;BME280_temperature;BME280_humidity;BME280_pressure;Samples;Min_cycle;Max_cycle;Signal;HPM_P1;HPM_P2
2023/07/22 00:00:50;;;;;;;9.10;8.03;;;18.20;98.30;;;;;;4996514;28;20266;-61
2023/07/22 00:03:15;;;;;;;9.50;8.60;;;18.10;98.40;;;;;;4994002;28;20207;-60
2023/07/22 00:05:41;;;;;;;9.63;8.73;;;18.10;98.70;;;;;;4994874;28;20552;-60
2023/07/22 00:08:07;;;;;;;9.53;8.63;;;18.10;98.80;;;;;;4995217;28;20179;-60
2023/07/22 00:10:33;;;;;;;10.13;9.10;;;18.10;99.00;;;;;;4995427;28;20476;-60
2023/07/22 00:12:59;;;;;;;11.07;8.97;;;18.00;98.90;;;;;;4996023;28;20184;-60
2023/07/22 00:15:25;;;;;;;9.77;8.80;;;18.00;99.00;;;;;;4993580;28;20258;-60
2023/07/22 00:17:51;;;;;;;9.70;8.70;;;18.00;99.10;;;;;;4995841;28;20576;-61
2023/07/22 00:20:17;;;;;;;9.57;8.57;;;18.00;99.30;;;;;;4993847;28;20427;-60
2023/07/22 00:22:43;;;;;;;9.17;7.67;;;18.10;99.90;;;;;;4996140;28;20800;-60
2023/07/22 00:25:12;;;;;;;8.73;7.93;;;18.00;99.70;;;;;;4994854;28;20187;-60
2023/07/22 00:27:39;;;;;;;10.03;9.03;;;18.00;99.10;;;;;;4995873;28;20180;-60
2023/07/22 00:30:06;;;;;;;9.37;8.50;;;18.00;99.10;;;;;;4995171;28;20426;-60
2023/07/22 00:32:32;;;;;;;8.73;7.87;;;17.90;99.10;;;;;;4994569;28;20911;-60
2023/07/22 00:34:58;;;;;;;9.30;8.37;;;17.90;99.30;;;;;;4995652;28;20459;-60
2023/07/22 00:37:25;;;;;;;8.67;7.87;;;17.90;99.40;;;;;;4994738;28;21040;-60
2023/07/22 00:39:51;;;;;;;12.70;8.93;;;17.80;99.40;;;;;;4995797;28;20649;-61
2023/07/22 00:42:17;;;;;;;9.60;8.70;;;17.80;99.70;;;;;;4994552;28;20469;-60
2023/07/22 00:44:42;;;;;;;8.87;8.07;;;17.60;99.90;;;;;;4994503;28;20423;-60
2023/07/22 00:47:09;;;;;;;9.03;8.13;;;17.60;99.90;;;;;;4994836;28;20172;-60
2023/07/22 00:49:36;;;;;;;9.40;8.50;;;17.50;99.90;;;;;;4995382;28;20174;-60
2023/07/22 00:52:04;;;;;;;9.60;8.53;;;17.40;99.90;;;;;;4995249;28;20423;-60
2023/07/22 00:54:31;;;;;;;9.30;8.30;;;17.50;99.90;;;;;;4995289;28;20449;-60
2023/07/22 00:56:57;;;;;;;9.57;8.40;;;17.30;99.90;;;;;;4994254;28;20427;-60
2023/07/22 00:59:24;;;;;;;9.57;8.67;;;17.30;99.90;;;;;;4994337;28;20482;-60
2023/07/22 01:01:50;;;;;;;9.30;8.40;;;17.20;99.90;;;;;;4995118;28;20446;-60
2023/07/22 01:04:19;;;;;;;10.23;9.23;;;17.10;99.90;;;;;;4993878;28;20442;-60
2023/07/22 01:06:45;;;;;;;9.43;8.43;;;17.00;99.90;;;;;;4995161;28;20425;-62
2023/07/22 01:09:11;;;;;;;9.60;8.40;;;16.80;99.90;;;;;;4993728;28;20507;-60
2023/07/22 01:11:37;;;;;;;9.83;8.60;;;16.80;99.90;;;;;;4995226;28;20847;-60
2023/07/22 01:14:03;;;;;;;9.40;8.50;;;16.60;99.90;;;;;;4995190;28;20172;-60
2023/07/22 01:16:29;;;;;;;12.40;9.23;;;16.60;99.90;;;;;;4993415;28;20168;-60
2023/07/22 01:18:56;;;;;;;9.50;8.60;;;16.60;99.90;;;;;;4993584;28;20811;-60
2023/07/22 01:21:25;;;;;;;10.53;9.43;;;16.50;99.90;;;;;;4994140;28;20457;-60
2023/07/22 01:23:52;;;;;;;10.23;9.17;;;16.50;99.90;;;;;;4994613;28;20501;-60
2023/07/22 01:26:18;;;;;;;11.47;8.93;;;16.50;99.90;;;;;;4993238;28;20438;-60
2023/07/22 01:28:44;;;;;;;9.43;8.53;;;16.50;99.90;;;;;;4993861;28;20466;-60
2023/07/22 01:31:10;;;;;;;9.70;8.70;;;16.50;99.90;;;;;;4992812;28;20407;-60
2023/07/22 01:33:37;;;;;;;10.37;9.33;;;16.60;99.90;;;;;;4993637;28;20179;-60
2023/07/22 01:36:04;;;;;;;9.93;8.97;;;16.60;99.90;;;;;;4994130;28;20550;-60
2023/07/22 01:38:31;;;;;;;11.23;8.50;;;16.60;99.90;;;;;;4994187;28;20431;-60
2023/07/22 01:40:57;;;;;;;9.70;8.80;;;16.50;99.90;;;;;;4994418;28;20478;-60
2023/07/22 01:43:22;;;;;;;10.17;9.17;;;16.50;99.90;;;;;;4992968;28;20626;-61
2023/07/22 01:45:48;;;;;;;10.17;9.13;;;16.30;99.90;;;;;;4994318;28;20512;-60
2023/07/22 01:48:14;;;;;;;10.40;9.50;;;16.30;99.90;;;;;;4993458;28;20258;-60
2023/07/22 01:50:40;;;;;;;10.50;9.50;;;16.40;99.90;;;;;;4994066;28;20652;-60
2023/07/22 01:53:06;;;;;;;9.83;8.93;;;16.50;99.90;;;;;;4993879;28;20175;-60
2023/07/22 01:55:32;;;;;;;10.83;9.73;;;16.60;99.90;;;;;;4993002;28;20431;-60
2023/07/22 01:57:58;;;;;;;9.30;8.50;;;16.70;99.90;;;;;;4993952;28;20208;-60
2023/07/22 02:00:24;;;;;;;11.03;9.90;;;16.80;99.90;;;;;;4992538;28;20415;-60
2023/07/22 02:02:50;;;;;;;10.93;9.70;;;16.80;99.90;;;;;;4992968;28;20469;-60
2023/07/22 02:05:16;;;;;;;10.00;9.07;;;16.90;99.90;;;;;;4993498;28;20407;-60
2023/07/22 02:07:42;;;;;;;9.90;9.00;;;16.90;99.90;;;;;;4993926;28;20217;-60
2023/07/22 02:10:09;;;;;;;9.40;8.50;;;17.00;99.90;;;;;;4993816;28;20242;-60
2023/07/22 02:12:35;;;;;;;10.43;9.43;;;17.00;99.90;;;;;;4993863;28;20505;-61
2023/07/22 02:15:02;;;;;;;10.27;9.27;;;17.10;99.90;;;;;;4994003;28;20998;-60
2023/07/22 02:17:30;;;;;;;9.97;9.10;;;17.10;99.90;;;;;;4992732;28;20477;-60
2023/07/22 02:19:56;;;;;;;9.83;8.93;;;17.20;99.90;;;;;;4994429;28;20414;-60
2023/07/22 02:22:22;;;;;;;10.20;9.20;;;17.20;99.90;;;;;;4992155;28;20454;-60
2023/07/22 02:24:47;;;;;;;9.97;8.97;;;17.20;99.90;;;;;;4993486;28;20205;-60
2023/07/22 02:27:16;;;;;;;10.23;9.23;;;17.20;99.90;;;;;;4991841;28;20187;-60
2023/07/22 02:29:42;;;;;;;10.10;9.10;;;17.20;99.90;;;;;;4993628;28;20415;-60
2023/07/22 02:32:08;;;;;;;10.53;9.57;;;17.20;99.90;;;;;;4993537;28;20418;-60
2023/07/22 02:34:34;;;;;;;10.73;9.60;;;17.20;99.90;;;;;;4992626;28;20414;-60
2023/07/22 02:37:00;;;;;;;9.13;8.33;;;17.20;99.90;;;;;;4993217;28;20934;-60
2023/07/22 02:39:25;;;;;;;8.80;8.00;;;17.20;99.90;;;;;;4992792;28;20506;-60
2023/07/22 02:41:51;;;;;;;9.90;8.93;;;17.20;99.90;;;;;;4993229;28;20284;-61
2023/07/22 02:44:17;;;;;;;13.37;10.10;;;17.30;99.90;;;;;;4992494;28;20190;-60
2023/07/22 02:46:42;;;;;;;10.23;9.33;;;17.20;99.90;;;;;;4975970;28;20163;-60
2023/07/22 02:49:08;;;;;;;9.90;9.00;;;17.30;99.90;;;;;;4993566;28;20212;-60
2023/07/22 02:51:34;;;;;;;10.40;9.40;;;17.30;99.90;;;;;;4992959;28;20176;-60
2023/07/22 02:54:00;;;;;;;10.53;9.40;;;17.30;99.90;;;;;;4992192;28;20187;-60
2023/07/22 02:56:25;;;;;;;9.70;8.80;;;17.30;99.90;;;;;;4990960;28;20587;-60
2023/07/22 02:58:53;;;;;;;9.90;8.90;;;17.30;99.90;;;;;;4991860;28;20183;-60
2023/07/22 03:01:19;;;;;;;11.60;9.63;;;17.30;99.90;;;;;;4992197;28;20262;-60
2023/07/22 03:03:45;;;;;;;9.37;8.47;;;17.30;99.90;;;;;;4992642;28;20581;-60
2023/07/22 03:06:10;;;;;;;10.00;9.20;;;17.30;99.90;;;;;;4992628;28;20180;-60
2023/07/22 03:08:36;;;;;;;10.53;9.53;;;17.30;99.90;;;;;;4992013;28;20179;-60
2023/07/22 03:11:03;;;;;;;10.73;9.73;;;17.40;99.90;;;;;;4993133;28;20867;-60
2023/07/22 03:13:29;;;;;;;9.77;8.77;;;17.40;99.90;;;;;;4992091;28;20214;-61
2023/07/22 03:15:56;;;;;;;11.17;10.07;;;17.40;99.90;;;;;;4992845;28;20418;-60
2023/07/22 03:18:22;;;;;;;10.23;9.23;;;17.40;99.90;;;;;;4990896;28;20429;-60
2023/07/22 03:20:49;;;;;;;13.07;11.77;;;17.30;99.90;;;;;;4992925;28;20848;-60
2023/07/22 03:23:14;;;;;;;10.90;9.80;;;17.30;99.90;;;;;;4991150;28;20557;-60
2023/07/22 03:25:41;;;;;;;10.80;9.70;;;17.30;99.90;;;;;;4992935;28;20552;-60
2023/07/22 03:28:07;;;;;;;10.20;9.30;;;17.30;99.90;;;;;;4992466;28;20606;-60
2023/07/22 03:30:33;;;;;;;10.70;9.53;;;17.30;99.90;;;;;;4991775;28;20497;-60
2023/07/22 03:33:00;;;;;;;9.87;8.90;;;17.30;99.90;;;;;;4992318;28;20503;-60
2023/07/22 03:35:27;;;;;;;10.63;9.53;;;17.40;99.90;;;;;;4995495;28;20486;-60
2023/07/22 03:37:53;;;;;;;10.70;9.70;;;17.40;99.90;;;;;;4997149;28;20419;-61
2023/07/22 03:40:37;;;;;;;10.03;9.10;;;17.40;99.90;;;;;;4995995;28;20411;-60
2023/07/22 03:43:03;;;;;;;10.53;9.53;;;17.40;99.90;;;;;;4992843;28;20458;-60
2023/07/22 03:45:29;;;;;;;9.80;8.80;;;17.40;99.90;;;;;;4995676;28;20554;-60
2023/07/22 03:47:59;;;;;;;10.13;9.00;;;17.40;99.90;;;;;;4997051;28;20180;-60
2023/07/22 03:50:25;;;;;;;10.80;9.50;;;17.40;99.90;;;;;;4995500;28;20183;-60
2023/07/22 03:52:51;;;;;;;10.80;9.80;;;17.40;99.90;;;;;;4984573;28;20516;-60
2023/07/22 03:55:19;;;;;;;11.13;9.57;;;17.40;99.90;;;;;;4995893;28;20442;-59
2023/07/22 03:57:45;;;;;;;10.73;9.70;;;17.50;99.90;;;;;;4996689;28;20259;-60
2023/07/22 04:00:11;;;;;;;9.87;8.97;;;17.50;99.90;;;;;;4996419;28;20419;-60
2023/07/22 04:02:37;;;;;;;10.07;9.20;;;17.60;99.90;;;;;;4995390;28;20450;-60
2023/07/22 04:05:03;;;;;;;9.80;8.90;;;17.60;99.90;;;;;;4994247;28;20529;-60
2023/07/22 04:07:29;;;;;;;9.50;8.63;;;17.60;99.90;;;;;;4977589;28;20175;-60
2023/07/22 04:09:54;;;;;;;10.03;9.03;;;17.60;99.90;;;;;;4996320;28;20403;-60
2023/07/22 04:12:20;;;;;;;9.93;8.90;;;17.70;99.90;;;;;;4995498;28;20179;-60
2023/07/22 04:14:46;;;;;;;9.83;8.90;;;17.70;99.90;;;;;;4995657;28;20179;-60
2023/07/22 04:17:12;;;;;;;8.40;7.63;;;17.70;99.90;;;;;;4996193;28;20176;-60
2023/07/22 04:19:37;;;;;;;10.27;9.33;;;17.70;99.90;;;;;;4993794;28;20221;-60
2023/07/22 04:22:04;;;;;;;9.90;9.00;;;17.80;99.90;;;;;;4994595;28;20187;-60
2023/07/22 04:24:33;;;;;;;11.77;10.57;;;17.80;99.90;;;;;;4977642;28;20270;-60
2023/07/22 04:27:01;;;;;;;10.13;9.17;;;17.80;99.70;;;;;;4996068;28;20461;-60
2023/07/22 04:29:27;;;;;;;10.10;9.20;;;17.80;99.40;;;;;;4995026;28;20431;-60
2023/07/22 04:32:00;;;;;;;11.00;10.00;;;17.80;99.00;;;;;;4996048;28;20472;-60
2023/07/22 04:34:35;;;;;;;10.70;9.67;;;17.90;98.80;;;;;;4993871;28;20437;-61
2023/07/22 04:37:01;;;;;;;10.23;9.43;;;17.90;99.60;;;;;;4995895;28;20411;-61
2023/07/22 04:39:27;;;;;;;10.13;9.23;;;17.90;99.30;;;;;;4993732;28;20426;-61
2023/07/22 04:41:53;;;;;;;9.40;8.70;;;18.00;99.90;;;;;;4994352;28;20802;-60
2023/07/22 04:44:19;;;;;;;9.37;8.57;;;18.00;99.50;;;;;;4994593;28;20429;-60
2023/07/22 04:46:45;;;;;;;10.20;9.30;;;18.00;98.00;;;;;;4995778;28;20168;-60
2023/07/22 04:49:11;;;;;;;11.53;10.33;;;18.00;98.40;;;;;;4995561;28;20767;-60
2023/07/22 04:51:37;;;;;;;9.87;9.07;;;18.10;98.60;;;;;;4994838;28;20289;-60
2023/07/22 04:54:03;;;;;;;9.53;8.77;;;18.10;98.60;;;;;;4995460;28;20425;-60
2023/07/22 04:56:28;;;;;;;9.70;8.80;;;18.10;99.10;;;;;;4994374;28;20266;-60
2023/07/22 04:58:54;;;;;;;9.97;9.03;;;18.10;99.10;;;;;;4993915;28;20549;-60
2023/07/22 05:01:20;;;;;;;9.87;8.90;;;18.20;99.00;;;;;;4995118;28;20651;-60
2023/07/22 05:03:45;;;;;;;9.33;8.47;;;18.20;98.20;;;;;;4994466;28;20206;-60
2023/07/22 05:06:11;;;;;;;10.87;9.37;;;18.30;98.20;;;;;;4995392;28;20183;-61
2023/07/22 05:08:38;;;;;;;9.77;8.87;;;18.30;98.80;;;;;;4994460;28;20663;-60
2023/07/22 05:11:04;;;;;;;9.93;9.13;;;18.30;98.50;;;;;;4994794;28;20226;-60
2023/07/22 05:13:29;;;;;;;10.00;9.13;;;18.40;97.80;;;;;;4993726;28;20427;-61
2023/07/22 05:15:55;;;;;;;10.37;9.37;;;18.40;97.70;;;;;;4994836;28;20192;-60
2023/07/22 05:18:21;;;;;;;9.20;8.30;;;18.50;98.30;;;;;;4992948;28;20190;-60
2023/07/22 05:20:47;;;;;;;9.70;8.77;;;18.60;98.20;;;;;;4993884;28;20192;-60
2023/07/22 05:23:12;;;;;;;9.30;8.50;;;18.60;98.30;;;;;;4994254;28;20199;-61
2023/07/22 05:25:38;;;;;;;9.40;8.60;;;18.70;98.90;;;;;;4993144;28;20176;-61
2023/07/22 05:28:04;;;;;;;9.03;8.33;;;18.70;97.90;;;;;;4993841;28;20242;-61
2023/07/22 05:30:29;;;;;;;9.93;8.93;;;18.70;97.80;;;;;;4992650;28;20191;-61
2023/07/22 05:32:55;;;;;;;10.60;8.90;;;18.80;97.70;;;;;;4994066;28;20534;-60
2023/07/22 05:35:21;;;;;;;9.03;8.30;;;18.80;97.50;;;;;;4992917;28;20590;-60
2023/07/22 05:37:47;;;;;;;10.10;9.20;;;18.90;98.00;;;;;;4989360;28;20188;-62
2023/07/22 05:40:13;;;;;;;9.07;8.27;;;18.90;98.40;;;;;;4993039;28;20191;-63
2023/07/22 05:42:39;;;;;;;9.47;8.77;;;18.90;97.00;;;;;;4992829;28;20702;-62
2023/07/22 05:45:05;;;;;;;9.43;8.53;;;18.90;97.10;;;;;;4993094;28;20431;-62
2023/07/22 05:47:31;;;;;;;9.60;8.80;;;19.00;96.90;;;;;;4993351;28;20183;-62
2023/07/22 05:49:56;;;;;;;9.40;8.60;;;19.00;96.70;;;;;;4992968;28;20423;-63
2023/07/22 05:52:22;;;;;;;8.93;8.13;;;19.10;96.50;;;;;;4993776;28;20176;-60
2023/07/22 05:54:48;;;;;;;9.47;8.67;;;19.10;96.90;;;;;;4992514;28;20183;-62
2023/07/22 05:57:14;;;;;;;9.70;8.70;;;19.10;96.50;;;;;;4993397;28;20739;-62
2023/07/22 05:59:40;;;;;;;8.97;8.27;;;19.20;96.10;;;;;;4992734;28;20183;-62
2023/07/22 06:02:07;;;;;;;9.50;8.60;;;19.20;96.70;;;;;;4993659;28;20176;-62
2023/07/22 06:04:33;;;;;;;8.80;7.70;;;19.20;96.80;;;;;;4992370;28;20466;-62
2023/07/22 06:06:59;;;;;;;8.93;8.13;;;19.20;97.00;;;;;;4993701;28;20451;-62
2023/07/22 06:09:25;;;;;;;10.30;9.20;;;19.30;96.40;;;;;;4991902;28;20632;-60
2023/07/22 06:11:50;;;;;;;9.60;8.60;;;19.30;96.60;;;;;;4993691;28;20191;-62
2023/07/22 06:14:16;;;;;;;9.13;8.23;;;19.30;97.00;;;;;;4993085;28;20438;-62
2023/07/22 06:16:42;;;;;;;8.53;7.93;;;19.40;96.60;;;;;;4992604;28;20734;-62
2023/07/22 06:19:08;;;;;;;9.30;8.40;;;19.40;96.30;;;;;;4993433;28;20620;-63
2023/07/22 06:21:33;;;;;;;9.13;8.43;;;19.40;95.40;;;;;;4991974;28;20175;-63
2023/07/22 06:23:59;;;;;;;10.00;9.10;;;19.50;96.50;;;;;;4992907;28;20295;-62
2023/07/22 06:26:25;;;;;;;8.90;8.00;;;19.50;96.20;;;;;;4991816;28;20654;-60
2023/07/22 06:28:50;;;;;;;8.80;8.10;;;19.60;95.90;;;;;;4992465;28;20266;-62
2023/07/22 06:31:21;;;;;;;9.03;8.33;;;19.60;95.70;;;;;;4991682;28;20667;-62
2023/07/22 06:33:47;;;;;;;9.20;8.50;;;19.70;96.10;;;;;;4991482;28;20501;-63
2023/07/22 06:36:12;;;;;;;8.47;7.77;;;19.70;96.20;;;;;;4993364;28;20953;-62
2023/07/22 06:38:38;;;;;;;10.27;9.47;;;19.70;96.70;;;;;;4991658;28;20180;-62
2023/07/22 06:41:04;;;;;;;9.90;9.10;;;19.80;95.90;;;;;;4991040;28;20179;-62
2023/07/22 06:43:30;;;;;;;9.73;8.93;;;19.70;95.70;;;;;;4991911;28;20218;-62
2023/07/22 06:45:56;;;;;;;10.47;9.57;;;19.80;96.30;;;;;;4992670;28;20200;-62
2023/07/22 06:48:22;;;;;;;9.37;8.67;;;19.80;96.40;;;;;;4991471;28;20434;-62
2023/07/22 06:50:49;;;;;;;10.27;9.43;;;19.90;95.80;;;;;;4992176;28;20647;-62
2023/07/22 06:53:15;;;;;;;10.90;10.00;;;19.90;96.20;;;;;;4992327;28;20438;-62
2023/07/22 06:55:50;;;;;;;8.37;7.67;;;20.00;95.50;;;;;;4991177;28;20434;-62
2023/07/22 06:58:15;;;;;;;8.63;7.73;;;20.00;95.50;;;;;;4992710;28;20187;-62
2023/07/22 07:00:41;;;;;;;9.40;8.63;;;20.00;95.90;;;;;;4992367;28;20465;-62
2023/07/22 07:03:07;;;;;;;9.40;8.43;;;20.10;95.60;;;;;;4991513;28;20196;-61
2023/07/22 07:05:34;;;;;;;8.40;7.70;;;20.10;95.50;;;;;;4992261;28;20258;-63
2023/07/22 07:08:00;;;;;;;8.87;8.00;;;20.20;96.10;;;;;;4992223;28;20564;-63
2023/07/22 07:10:26;;;;;;;8.57;7.70;;;20.30;95.50;;;;;;4992263;28;20423;-60
2023/07/22 07:12:51;;;;;;;9.13;8.40;;;20.40;94.30;;;;;;4991897;28;20192;-62
2023/07/22 07:15:18;;;;;;;8.70;7.90;;;20.40;94.20;;;;;;4990999;28;20215;-62
2023/07/22 07:17:44;;;;;;;8.80;8.10;;;20.40;94.50;;;;;;4988340;28;20599;-63
2023/07/22 07:20:10;;;;;;;9.10;8.40;;;20.50;94.10;;;;;;4992351;28;20465;-63
2023/07/22 07:22:36;;;;;;;8.70;8.00;;;20.60;95.00;;;;;;4989645;28;20570;-62
2023/07/22 07:25:02;;;;;;;9.43;8.73;;;20.70;94.10;;;;;;4992163;28;20466;-63
2023/07/22 07:27:28;;;;;;;9.07;8.23;;;20.80;93.00;;;;;;4991507;28;20506;-61
2023/07/22 07:29:54;;;;;;;9.10;8.40;;;20.80;93.00;;;;;;4991795;28;20439;-63
2023/07/22 07:32:19;;;;;;;9.27;8.50;;;20.90;93.50;;;;;;4990650;28;20556;-63
2023/07/22 07:34:45;;;;;;;9.03;8.23;;;20.90;93.00;;;;;;4990577;28;20427;-63
2023/07/22 07:37:11;;;;;;;9.40;8.60;;;21.00;92.80;;;;;;4992186;28;20199;-63
2023/07/22 07:39:37;;;;;;;8.90;8.10;;;21.10;92.70;;;;;;4987129;28;20191;-62
2023/07/22 07:42:03;;;;;;;11.30;8.63;;;21.20;92.40;;;;;;4990335;28;20187;-63
2023/07/22 07:44:29;;;;;;;9.37;8.47;;;21.20;91.60;;;;;;4990716;28;20437;-60
2023/07/22 07:46:54;;;;;;;9.00;8.20;;;21.20;92.30;;;;;;4990878;28;20510;-63
2023/07/22 07:49:20;;;;;;;8.77;8.07;;;21.20;91.80;;;;;;4991423;28;20691;-62
2023/07/22 07:51:46;;;;;;;8.90;8.00;;;21.30;92.70;;;;;;4991179;28;20184;-63
2023/07/22 07:54:12;;;;;;;9.40;8.60;;;21.40;91.30;;;;;;4991839;28;20211;-63
2023/07/22 07:56:37;;;;;;;9.77;8.87;;;21.40;91.40;;;;;;4988700;28;20187;-63
2023/07/22 07:59:05;;;;;;;9.90;8.87;;;21.40;90.80;;;;;;4990318;28;20194;-63
2023/07/22 08:01:31;;;;;;;8.73;8.03;;;21.50;90.50;;;;;;4986590;28;20444;-62
2023/07/22 08:03:57;;;;;;;10.20;8.50;;;21.60;91.10;;;;;;4989896;28;20469;-65
2023/07/22 08:06:23;;;;;;;9.03;8.33;;;21.70;91.50;;;;;;4990699;28;20219;-65
2023/07/22 08:08:49;;;;;;;9.37;8.43;;;21.90;91.30;;;;;;4990105;28;20180;-66
2023/07/22 08:11:15;;;;;;;8.93;8.23;;;22.10;91.40;;;;;;4986824;28;20429;-65
2023/07/22 08:13:43;;;;;;;12.40;11.30;;;22.20;91.50;;;;;;4989216;28;20430;-65
2023/07/22 08:16:10;;;;;;;11.50;10.50;;;22.30;89.30;;;;;;4991723;28;20489;-65
2023/07/22 08:18:37;;;;;;;9.13;8.43;;;22.40;87.60;;;;;;4987404;28;20424;-64
2023/07/22 08:21:04;;;;;;;11.37;10.33;;;22.60;90.10;;;;;;4994420;28;20437;-65
2023/07/22 08:23:30;;;;;;;10.00;9.10;;;22.70;90.90;;;;;;4995700;28;20549;-62
2023/07/22 08:25:56;;;;;;;11.30;10.20;;;22.80;88.80;;;;;;4995155;28;20454;-65
2023/07/22 08:28:22;;;;;;;10.97;9.80;;;22.90;87.10;;;;;;4994194;28;20418;-65
2023/07/22 08:30:48;;;;;;;9.77;8.97;;;23.00;90.60;;;;;;4994554;28;20573;-65
2023/07/22 08:33:16;;;;;;;8.93;8.23;;;23.10;83.30;;;;;;4994389;28;20201;-66
2023/07/22 08:35:42;;;;;;;11.07;9.97;;;23.00;82.20;;;;;;4993384;28;20604;-65
2023/07/22 08:38:08;;;;;;;10.37;9.37;;;23.00;86.20;;;;;;4995391;28;20435;-65
2023/07/22 08:40:39;;;;;;;13.93;12.53;;;22.90;84.00;;;;;;4994623;28;20423;-62
2023/07/22 08:43:07;;;;;;;10.33;9.37;;;22.90;86.40;;;;;;4984835;28;20503;-63
2023/07/22 08:45:37;;;;;;;15.73;14.03;;;22.90;86.90;;;;;;4993299;28;20498;-62
2023/07/22 08:48:09;;;;;;;21.60;18.60;;;23.00;84.20;;;;;;4994163;28;20430;-64
2023/07/22 08:50:43;;;;;;;12.10;10.87;;;23.10;84.90;;;;;;4983286;28;20785;-63
2023/07/22 08:53:11;;;;;;;13.87;12.30;;;23.10;84.80;;;;;;4985373;28;20506;-64
2023/07/22 08:55:40;;;;;;;10.40;9.40;;;23.00;81.80;;;;;;4993544;28;20786;-64
2023/07/22 08:58:11;;;;;;;9.83;9.03;;;23.00;85.60;;;;;;4989650;28;20430;-64
2023/07/22 09:00:40;;;;;;;9.80;9.00;;;23.10;86.30;;;;;;4993499;28;20950;-64
2023/07/22 09:03:06;;;;;;;8.50;7.90;;;23.10;83.20;;;;;;4987235;28;20455;-63
2023/07/22 09:05:33;;;;;;;10.23;9.33;;;23.20;82.50;;;;;;4987548;28;20451;-62
2023/07/22 09:08:01;;;;;;;13.23;12.00;;;23.30;82.80;;;;;;4985603;28;20442;-63
2023/07/22 09:10:28;;;;;;;11.27;10.17;;;23.40;83.20;;;;;;4986150;28;20419;-64
2023/07/22 09:12:54;;;;;;;11.20;10.30;;;23.50;79.00;;;;;;4985803;28;20513;-64
2023/07/22 09:15:21;;;;;;;10.20;9.30;;;23.60;85.30;;;;;;4994033;28;20426;-65
2023/07/22 09:17:47;;;;;;;45.47;35.00;;;23.70;80.50;;;;;;4991149;28;21086;-65
2023/07/22 09:20:14;;;;;;;26.90;22.83;;;23.70;79.00;;;;;;4989637;28;20474;-65
2023/07/22 09:22:47;;;;;;;9.63;8.93;;;23.60;78.90;;;;;;4993158;28;21013;-65
2023/07/22 09:25:19;;;;;;;11.27;10.17;;;23.60;78.50;;;;;;4994316;28;20781;-65
2023/07/22 09:27:49;;;;;;;9.80;8.90;;;23.70;81.00;;;;;;4993756;28;20410;-65
2023/07/22 09:30:22;;;;;;;11.23;10.13;;;23.70;78.60;;;;;;4994851;28;20407;-65
2023/07/22 09:32:49;;;;;;;10.60;8.10;;;23.70;80.10;;;;;;4990885;28;20431;-65
2023/07/22 09:35:17;;;;;;;9.00;8.23;;;23.60;77.70;;;;;;4993979;28;20554;-65
2023/07/22 09:37:43;;;;;;;9.17;8.20;;;23.60;76.40;;;;;;4983445;28;20431;-62
2023/07/22 09:40:20;;;;;;;8.30;7.50;;;23.60;77.90;;;;;;4993786;28;20426;-62
2023/07/22 09:42:54;;;;;;;8.93;8.23;;;23.50;75.00;;;;;;4991526;28;20325;-62
2023/07/22 09:45:25;;;;;;;7.80;7.10;;;23.40;78.00;;;;;;4979930;28;20934;-62
2023/07/22 09:47:52;;;;;;;7.83;7.33;;;23.30;77.00;;;;;;4988315;28;20509;-63
2023/07/22 09:50:23;;;;;;;7.53;6.93;;;23.30;76.60;;;;;;4985489;28;21412;-63
2023/07/22 09:52:51;;;;;;;8.60;7.97;;;23.20;77.60;;;;;;4984210;28;20521;-63
2023/07/22 09:55:23;;;;;;;8.47;7.77;;;23.20;75.40;;;;;;4991273;28;20431;-64
2023/07/22 09:57:55;;;;;;;8.80;7.90;;;23.10;75.10;;;;;;4991473;28;22376;-63
2023/07/22 10:00:23;;;;;;;46.63;38.63;;;23.00;75.80;;;;;;4989043;28;20454;-64
2023/07/22 10:02:49;;;;;;;54.27;47.87;;;22.90;75.30;;;;;;4984583;28;20458;-64
2023/07/22 10:05:18;;;;;;;8.53;7.80;;;22.80;78.50;;;;;;4990315;28;20437;-66
2023/07/22 10:07:47;;;;;;;8.37;7.63;;;22.80;78.10;;;;;;4988892;28;20458;-62
2023/07/22 10:10:15;;;;;;;9.33;8.43;;;22.70;76.20;;;;;;4990676;28;20929;-63
2023/07/22 10:12:42;;;;;;;8.07;7.47;;;22.50;77.60;;;;;;4991337;28;20435;-62
2023/07/22 10:15:13;;;;;;;7.63;7.13;;;22.50;80.20;;;;;;4993108;28;20415;-65
2023/07/22 10:17:41;;;;;;;7.87;7.30;;;22.40;78.20;;;;;;4987236;28;20438;-62
2023/07/22 10:20:14;;;;;;;7.47;6.83;;;22.50;78.40;;;;;;4993244;28;20427;-62
2023/07/22 10:22:45;;;;;;;7.60;7.00;;;22.50;78.60;;;;;;4990765;28;20537;-61
2023/07/22 10:25:21;;;;;;;7.10;6.60;;;22.60;77.60;;;;;;4987018;28;20434;-63
2023/07/22 10:27:49;;;;;;;7.27;6.70;;;22.70;79.60;;;;;;4993023;28;20470;-62
2023/07/22 10:30:16;;;;;;;8.17;7.40;;;22.80;80.30;;;;;;4992023;28;20926;-61
2023/07/22 10:32:45;;;;;;;7.20;6.17;;;22.80;78.30;;;;;;4992651;28;20801;-62
2023/07/22 10:35:17;;;;;;;7.10;6.50;;;23.00;78.00;;;;;;4993744;28;20470;-61
2023/07/22 10:37:45;;;;;;;6.93;6.33;;;23.00;77.90;;;;;;4992980;28;20495;-62
2023/07/22 10:40:20;;;;;;;7.53;7.03;;;23.10;78.70;;;;;;4993628;28;20509;-62
2023/07/22 10:43:05;;;;;;;7.80;7.20;;;23.20;78.80;;;;;;4990949;28;20464;-63
2023/07/22 10:45:41;;;;;;;7.93;7.33;;;23.40;77.60;;;;;;4992637;28;20458;-63
2023/07/22 10:48:08;;;;;;;103.53;81.60;;;23.60;79.10;;;;;;4993227;28;20496;-63
2023/07/22 10:50:52;;;;;;;25.13;22.63;;;23.70;76.70;;;;;;4991432;28;20946;-62
2023/07/22 10:53:24;;;;;;;27.03;24.27;;;23.80;74.50;;;;;;4992524;28;20423;-62
2023/07/22 10:56:04;;;;;;;7.97;7.37;;;23.90;75.10;;;;;;4992857;28;20473;-62
2023/07/22 10:58:53;;;;;;;8.40;7.70;;;24.00;72.70;;;;;;4993221;28;20418;-62
2023/07/22 11:01:28;;;;;;;7.33;6.80;;;23.90;72.50;;;;;;4993226;28;20430;-66
2023/07/22 11:04:13;;;;;;;6.10;5.60;;;23.90;74.40;;;;;;4992376;28;20467;-70
2023/07/22 11:06:53;;;;;;;9.37;8.57;;;23.80;73.10;;;;;;4992704;28;20464;-69
2023/07/22 11:09:33;;;;;;;7.80;7.20;;;23.50;79.70;;;;;;4992564;28;20392;-70
2023/07/22 11:12:01;;;;;;;9.10;8.40;;;23.50;78.00;;;;;;4992299;28;20974;-70
2023/07/22 11:14:29;;;;;;;7.80;7.30;;;23.50;79.00;;;;;;4992990;28;20584;-69
2023/07/22 11:16:58;;;;;;;7.43;6.93;;;23.60;78.70;;;;;;4992193;28;20398;-69
2023/07/22 11:19:25;;;;;;;9.43;8.70;;;23.80;77.40;;;;;;4990413;28;20449;-70
2023/07/22 11:21:53;;;;;;;7.73;7.23;;;23.90;79.50;;;;;;4989320;28;20415;-68
2023/07/22 11:24:20;;;;;;;6.83;6.23;;;24.10;77.20;;;;;;4991460;28;20451;-70
2023/07/22 11:26:46;;;;;;;8.40;7.70;;;24.30;73.90;;;;;;4990888;28;20771;-69
2023/07/22 11:29:13;;;;;;;7.33;6.83;;;24.40;75.30;;;;;;4989081;28;20506;-69
2023/07/22 11:31:42;;;;;;;7.00;6.30;;;24.30;73.10;;;;;;4990230;28;20923;-70
2023/07/22 11:34:12;;;;;;;7.23;6.63;;;24.30;73.00;;;;;;4992742;28;20411;-69
2023/07/22 11:36:38;;;;;;;7.00;6.40;;;24.40;72.00;;;;;;4992148;28;20458;-68
2023/07/22 11:39:09;;;;;;;6.10;5.70;;;24.40;73.00;;;;;;4992003;28;20426;-69
2023/07/22 11:41:36;;;;;;;21.43;19.20;;;24.10;70.10;;;;;;4992585;28;20422;-68
2023/07/22 11:44:08;;;;;;;29.20;25.43;;;24.20;72.90;;;;;;4991955;28;20581;-69
2023/07/22 11:46:35;;;;;;;6.67;6.10;;;24.30;71.80;;;;;;4992519;28;20753;-67
2023/07/22 11:49:02;;;;;;;6.77;6.23;;;24.30;70.00;;;;;;4991873;28;20433;-67
2023/07/22 11:51:29;;;;;;;11.83;10.80;;;24.30;71.10;;;;;;4992606;28;20489;-67
2023/07/22 11:53:55;;;;;;;6.77;6.27;;;24.30;71.90;;;;;;4991543;28;20891;-67
2023/07/22 11:56:23;;;;;;;8.80;5.97;;;24.40;69.40;;;;;;4996111;28;20450;-68
2023/07/22 11:58:54;;;;;;;8.07;7.23;;;24.50;70.00;;;;;;4994647;28;20494;-67
2023/07/22 12:01:20;;;;;;;8.63;8.00;;;24.50;69.00;;;;;;4994570;28;20506;-67
2023/07/22 12:03:46;;;;;;;7.17;6.67;;;24.60;68.70;;;;;;4995429;28;20549;-67
2023/07/22 12:06:13;;;;;;;8.77;8.03;;;24.70;69.60;;;;;;4996545;28;20229;-67
2023/07/22 12:08:47;;;;;;;6.07;5.77;;;24.80;70.00;;;;;;4992598;28;20415;-72
2023/07/22 12:11:24;;;;;;;6.40;5.90;;;24.70;66.80;;;;;;4996148;28;20414;-71
2023/07/22 12:14:11;;;;;;;6.90;6.40;;;24.50;65.80;;;;;;4993816;28;20406;-70
2023/07/22 12:16:39;;;;;;;6.20;5.80;;;24.60;66.40;;;;;;4995076;28;20419;-70
2023/07/22 12:19:06;;;;;;;87.93;74.17;;;24.60;68.60;;;;;;4990343;28;20398;-71
2023/07/22 12:21:32;;;;;;;9.17;8.47;;;24.60;66.80;;;;;;4995638;28;20584;-71
2023/07/22 12:23:59;;;;;;;16.00;14.50;;;24.60;65.90;;;;;;4995041;28;20471;-71
2023/07/22 12:26:24;;;;;;;7.30;6.60;;;24.70;68.20;;;;;;4995761;28;20758;-70
2023/07/22 12:28:50;;;;;;;5.83;5.43;;;24.70;63.90;;;;;;4994996;28;20413;-71
2023/07/22 12:31:16;;;;;;;8.10;7.50;;;24.90;65.50;;;;;;4995520;28;20581;-70
2023/07/22 12:33:45;;;;;;;10.73;9.80;;;25.10;67.30;;;;;;4992891;28;20243;-72
2023/07/22 12:36:11;;;;;;;5.83;5.53;;;25.20;66.40;;;;;;4995929;28;20469;-70
2023/07/22 12:38:37;;;;;;;6.53;5.93;;;25.20;65.80;;;;;;4995073;28;20931;-70
2023/07/22 12:41:03;;;;;;;5.60;5.30;;;25.30;63.40;;;;;;4992906;28;20183;-72
2023/07/22 12:43:29;;;;;;;6.27;5.87;;;25.20;60.70;;;;;;4994633;28;20454;-72